Time;durP1;ratioP1;P1;durP2;ratioP2;P2;SDS_P1;SDS_P2;PMS_P1;PMS_P2;Temp;Humidity;BMP_temperature;BMP_pressure;BME280_temperature;BME280_humidity;BME280_pressure;Samples;Min_cycle;Max_cycle;Signal;HPM_P1;HPM_P2
2022/03/11 00:00:34;;;;;;;20.92;11.30;;;;;;;;;;5055952;28;20094;-71
2022/03/11 00:03:01;;;;;;;16.65;8.93;;;;;;;;;;5056865;28;20134;-72
2022/03/11 00:05:28;;;;;;;24.83;12.20;;;;;;;;;;5058499;28;20048;-71
2022/03/11 00:07:55;;;;;;;22.95;13.60;;;;;;;;;;5056992;28;20463;-70
2022/03/11 00:10:22;;;;;;;26.52;14.52;;;;;;;;;;5058427;28;20072;-71
2022/03/11 00:12:49;;;;;;;24.38;13.60;;;;;;;;;;5057732;28;20044;-71
2022/03/11 00:15:22;;;;;;;26.55;13.07;;;;;;;;;;5055981;28;20080;-70
2022/03/11 00:17:48;;;;;;;23.63;13.32;;;;;;;;;;5057847;28;20084;-71
2022/03/11 00:20:19;;;;;;;26.85;13.80;;;;;;;;;;5054257;28;20131;-71
2022/03/11 00:22:46;;;;;;;26.27;14.18;;;;;;;;;;5057043;28;20504;-71
2022/03/11 00:25:13;;;;;;;26.58;14.70;;;;;;;;;;5054893;28;20102;-71
2022/03/11 00:27:39;;;;;;;27.17;14.98;;;;;;;;;;5059536;28;20079;-71
2022/03/11 00:30:06;;;;;;;25.48;12.13;;;;;;;;;;5058739;28;20080;-71
2022/03/11 00:32:33;;;;;;;22.58;11.88;;;;;;;;;;5054031;28;20102;-71
2022/03/11 00:34:59;;;;;;;26.38;14.63;;;;;;;;;;5055949;28;20072;-71
2022/03/11 00:37:28;;;;;;;28.63;14.20;;;;;;;;;;5057847;28;20045;-71
2022/03/11 00:39:55;;;;;;;23.17;12.35;;;;;;;;;;5059383;28;20095;-71
2022/03/11 00:42:21;;;;;;;27.23;14.38;;;;;;;;;;5060147;28;20072;-71
2022/03/11 00:44:54;;;;;;;30.10;15.48;;;;;;;;;;5054983;28;20048;-71
2022/03/11 00:47:20;;;;;;;30.75;16.38;;;;;;;;;;5054064;28;20136;-71
2022/03/11 00:49:47;;;;;;;27.60;15.60;;;;;;;;;;5048833;28;20167;-71
2022/03/11 00:52:14;;;;;;;23.30;14.48;;;;;;;;;;5051214;28;20135;-71
2022/03/11 00:54:40;;;;;;;25.95;14.93;;;;;;;;;;5049297;28;20141;-71
2022/03/11 00:57:06;;;;;;;30.77;15.23;;;;;;;;;;5050797;28;20143;-71
2022/03/11 00:59:33;;;;;;;28.83;14.88;;;;;;;;;;5049269;28;20045;-71
2022/03/11 01:01:59;;;;;;;27.98;13.93;;;;;;;;;;5052517;28;20139;-71
2022/03/11 01:04:26;;;;;;;31.13;16.00;;;;;;;;;;5056615;28;20059;-71
2022/03/11 01:06:59;;;;;;;26.67;14.50;;;;;;;;;;5059493;28;20487;-71
2022/03/11 01:09:26;;;;;;;27.50;13.93;;;;;;;;;;5056844;28;20095;-71
2022/03/11 01:11:53;;;;;;;27.27;13.75;;;;;;;;;;5056548;28;20139;-72
2022/03/11 01:14:19;;;;;;;23.98;13.57;;;;;;;;;;5056888;28;20629;-71
2022/03/11 01:16:46;;;;;;;24.30;13.80;;;;;;;;;;5052900;28;20061;-71
2022/03/11 01:19:13;;;;;;;28.55;14.23;;;;;;;;;;5056389;28;20052;-71
2022/03/11 01:21:40;;;;;;;25.92;14.18;;;;;;;;;;5059816;28;20472;-71
2022/03/11 01:24:07;;;;;;;26.50;14.13;;;;;;;;;;5061912;28;20561;-72
2022/03/11 01:26:34;;;;;;;22.00;12.52;;;;;;;;;;5063354;28;20080;-71
2022/03/11 01:29:02;;;;;;;22.73;13.45;;;;;;;;;;5061958;28;20048;-71
2022/03/11 01:31:28;;;;;;;28.75;13.77;;;;;;;;;;5060849;28;20095;-71
2022/03/11 01:33:55;;;;;;;25.90;13.33;;;;;;;;;;5062408;28;20091;-71
2022/03/11 01:36:21;;;;;;;20.07;10.20;;;;;;;;;;5061623;28;20346;-71
2022/03/11 01:38:48;;;;;;;26.80;13.93;;;;;;;;;;5060915;28;20298;-72
2022/03/11 01:41:14;;;;;;;30.63;13.82;;;;;;;;;;5059823;28;20645;-71
2022/03/11 01:43:51;;;;;;;30.58;14.18;;;;;;;;;;5060138;28;20044;-71
2022/03/11 01:46:17;;;;;;;29.90;13.80;;;;;;;;;;5058437;28;20127;-71
2022/03/11 01:48:44;;;;;;;23.25;13.10;;;;;;;;;;5062964;28;20040;-71
2022/03/11 01:51:11;;;;;;;22.37;12.60;;;;;;;;;;5064949;28;20530;-72
2022/03/11 01:53:37;;;;;;;25.37;12.70;;;;;;;;;;5061117;28;20132;-73
2022/03/11 01:56:10;;;;;;;23.17;12.82;;;;;;;;;;5062642;28;20476;-71
2022/03/11 01:58:38;;;;;;;20.23;11.35;;;;;;;;;;5063381;28;20165;-70
2022/03/11 02:01:04;;;;;;;27.10;13.45;;;;;;;;;;5060513;28;20428;-71
2022/03/11 02:03:32;;;;;;;24.05;13.55;;;;;;;;;;5059027;28;20041;-71
2022/03/11 02:06:02;;;;;;;26.02;14.25;;;;;;;;;;5063675;28;20102;-71
2022/03/11 02:08:29;;;;;;;25.30;12.68;;;;;;;;;;5064053;28;20048;-71
2022/03/11 02:11:02;;;;;;;23.33;12.32;;;;;;;;;;5062618;28;20584;-71
2022/03/11 02:13:41;;;;;;;19.70;10.13;;;;;;;;;;5056387;28;20049;-72
2022/03/11 02:16:16;;;;;;;27.67;13.50;;;;;;;;;;5061313;28;20576;-72
2022/03/11 02:18:42;;;;;;;24.90;13.65;;;;;;;;;;5062912;28;20048;-72
2022/03/11 02:21:09;;;;;;;32.67;13.10;;;;;;;;;;5058769;28;20044;-72
2022/03/11 02:23:38;;;;;;;18.20;8.88;;;;;;;;;;5062109;28;20048;-72
2022/03/11 02:26:05;;;;;;;25.63;12.00;;;;;;;;;;5060296;28;20091;-71
2022/03/11 02:28:32;;;;;;;28.90;13.35;;;;;;;;;;5061532;28;20085;-72
2022/03/11 02:30:59;;;;;;;24.17;12.73;;;;;;;;;;5057336;28;20095;-71
2022/03/11 02:33:25;;;;;;;29.83;12.50;;;;;;;;;;5057246;28;20099;-71
2022/03/11 02:35:58;;;;;;;24.60;11.93;;;;;;;;;;5058102;28;20132;-72
2022/03/11 02:38:24;;;;;;;33.15;13.02;;;;;;;;;;5060152;28;20084;-72
2022/03/11 02:40:51;;;;;;;27.20;12.23;;;;;;;;;;5060680;28;20128;-72
2022/03/11 02:43:24;;;;;;;31.80;13.55;;;;;;;;;;5062455;28;20087;-72
2022/03/11 02:45:51;;;;;;;22.75;10.68;;;;;;;;;;5059774;28;20080;-72
2022/03/11 02:48:17;;;;;;;24.43;11.30;;;;;;;;;;5055144;28;20095;-72
2022/03/11 02:50:45;;;;;;;25.70;12.02;;;;;;;;;;5058994;28;20139;-72
2022/03/11 02:53:11;;;;;;;27.92;12.43;;;;;;;;;;5061316;28;20149;-71
2022/03/11 02:55:38;;;;;;;22.33;10.33;;;;;;;;;;5061125;28;20087;-72
2022/03/11 02:58:11;;;;;;;25.15;12.10;;;;;;;;;;5056338;28;20080;-72
2022/03/11 03:00:38;;;;;;;21.90;10.03;;;;;;;;;;5060812;28;20110;-72
2022/03/11 03:03:05;;;;;;;21.38;9.80;;;;;;;;;;5056982;28;20045;-72
2022/03/11 03:05:32;;;;;;;28.33;12.68;;;;;;;;;;5057954;28;20053;-72
2022/03/11 03:07:58;;;;;;;23.65;11.85;;;;;;;;;;5058064;28;20131;-72
2022/03/11 03:10:25;;;;;;;21.50;11.67;;;;;;;;;;5062856;28;20076;-72
2022/03/11 03:12:53;;;;;;;31.88;12.23;;;;;;;;;;5061168;28;20083;-73
2022/03/11 03:15:20;;;;;;;25.42;12.25;;;;;;;;;;5054518;28;20127;-72
2022/03/11 03:17:46;;;;;;;25.55;12.65;;;;;;;;;;5057511;28;20113;-72
2022/03/11 03:20:13;;;;;;;30.25;12.38;;;;;;;;;;5056369;28;20092;-72
2022/03/11 03:22:40;;;;;;;23.67;12.38;;;;;;;;;;5052291;28;20652;-73
2022/03/11 03:25:07;;;;;;;23.57;8.93;;;;;;;;;;5052119;28;20088;-72
2022/03/11 03:27:35;;;;;;;26.52;11.65;;;;;;;;;;5052703;28;20147;-72
2022/03/11 03:30:02;;;;;;;37.40;13.35;;;;;;;;;;5052818;28;20072;-72
2022/03/11 03:32:28;;;;;;;;;;;;;;;;;;5052024;28;20088;-72
2022/03/11 03:34:55;;;;;;;29.30;11.98;;;;;;;;;;5055110;28;20020;-73
2022/03/11 03:37:21;;;;;;;27.33;11.38;;;;;;;;;;5052202;28;20218;-74
2022/03/11 03:39:48;;;;;;;27.65;12.82;;;;;;;;;;5052256;28;20495;-72
2022/03/11 03:42:18;;;;;;;23.00;12.13;;;;;;;;;;5051136;28;20080;-71
2022/03/11 03:44:44;;;;;;;27.95;12.32;;;;;;;;;;5050726;28;20172;-73
2022/03/11 03:47:11;;;;;;;30.17;12.20;;;;;;;;;;5051037;28;20143;-73
2022/03/11 03:49:37;;;;;;;35.00;12.88;;;;;;;;;;5050364;28;20048;-73
2022/03/11 03:52:11;;;;;;;27.70;12.73;;;;;;;;;;5054557;28;20143;-72
2022/03/11 03:54:41;;;;;;;27.73;11.88;;;;;;;;;;5055381;28;20059;-73
2022/03/11 03:57:07;;;;;;;21.98;11.23;;;;;;;;;;5051875;28;20151;-73
2022/03/11 03:59:34;;;;;;;22.30;11.18;;;;;;;;;;5050095;28;20140;-72
2022/03/11 04:02:00;;;;;;;24.88;12.07;;;;;;;;;;5054088;28;20080;-73
2022/03/11 04:04:27;;;;;;;29.63;12.10;;;;;;;;;;5055679;28;21971;-73
2022/03/11 04:06:53;;;;;;;23.02;10.30;;;;;;;;;;5051982;28;20425;-75
2022/03/11 04:09:20;;;;;;;19.00;9.03;;;;;;;;;;5050922;28;20080;-75
2022/03/11 04:11:47;;;;;;;26.63;11.45;;;;;;;;;;5052932;28;20152;-73
2022/03/11 04:14:14;;;;;;;31.40;10.53;;;;;;;;;;5047496;28;20127;-73
2022/03/11 04:16:41;;;;;;;27.02;11.85;;;;;;;;;;5018403;28;20348;-73
2022/03/11 04:19:08;;;;;;;20.60;8.85;;;;;;;;;;5033808;28;20463;-73
2022/03/11 04:21:37;;;;;;;18.00;8.80;;;;;;;;;;5031521;28;20223;-74
2022/03/11 04:24:12;;;;;;;27.45;11.85;;;;;;;;;;5032890;28;20142;-73
2022/03/11 04:26:40;;;;;;;24.35;11.15;;;;;;;;;;5036403;28;20041;-73
2022/03/11 04:29:07;;;;;;;25.70;10.88;;;;;;;;;;5035666;28;20425;-73
2022/03/11 04:31:33;;;;;;;27.23;12.25;;;;;;;;;;5041775;28;20083;-73
2022/03/11 04:34:01;;;;;;;27.30;10.98;;;;;;;;;;5041386;28;20060;-74
2022/03/11 04:36:28;;;;;;;;;;;;;;;;;;5031670;28;20207;-74
2022/03/11 04:38:55;;;;;;;23.27;10.73;;;;;;;;;;5044635;28;19925;-73
2022/03/11 04:41:22;;;;;;;26.70;12.20;;;;;;;;;;5043181;28;20081;-73
2022/03/11 04:43:52;;;;;;;27.67;12.38;;;;;;;;;;5044786;28;20076;-73
2022/03/11 04:46:18;;;;;;;25.88;11.95;;;;;;;;;;5029019;28;20046;-75
2022/03/11 04:48:47;;;;;;;25.20;11.80;;;;;;;;;;5040886;28;20048;-75
2022/03/11 04:51:14;;;;;;;27.73;12.32;;;;;;;;;;5044217;28;20049;-75
2022/03/11 04:53:40;;;;;;;24.58;10.95;;;;;;;;;;5039697;28;20543;-75
2022/03/11 04:56:07;;;;;;;25.40;11.68;;;;;;;;;;5042465;28;20091;-74
2022/03/11 04:58:34;;;;;;;27.57;11.50;;;;;;;;;;5038248;28;20128;-73
2022/03/11 05:01:00;;;;;;;26.77;11.83;;;;;;;;;;5038100;28;20296;-74
2022/03/11 05:03:27;;;;;;;28.05;11.98;;;;;;;;;;5041822;28;20060;-75
2022/03/11 05:06:00;;;;;;;27.67;11.68;;;;;;;;;;5041377;28;20124;-76
2022/03/11 05:08:26;;;;;;;20.37;8.73;;;;;;;;;;5045427;28;20049;-75
2022/03/11 05:10:53;;;;;;;31.55;12.18;;;;;;;;;;5041668;28;20371;-75
2022/03/11 05:13:23;;;;;;;25.52;11.32;;;;;;;;;;5040817;28;20103;-75
2022/03/11 05:15:49;;;;;;;18.43;8.73;;;;;;;;;;5043589;28;20088;-76
2022/03/11 05:18:16;;;;;;;29.90;12.52;;;;;;;;;;5043029;28;20050;-75
2022/03/11 05:20:44;;;;;;;;;;;;;;;;;;5041131;28;20089;-75
2022/03/11 05:23:12;;;;;;;24.95;11.02;;;;;;;;;;5040860;28;20411;-75
2022/03/11 05:25:38;;;;;;;27.20;11.73;;;;;;;;;;5041855;28;20479;-76
2022/03/11 05:28:08;;;;;;;29.05;10.95;;;;;;;;;;5039269;28;20076;-75
2022/03/11 05:30:36;;;;;;;19.07;9.03;;;;;;;;;;5042400;28;20081;-75
2022/03/11 05:33:04;;;;;;;30.85;11.98;;;;;;;;;;5042678;28;20329;-75
2022/03/11 05:35:31;;;;;;;24.98;10.25;;;;;;;;;;5040537;28;20045;-75
2022/03/11 05:37:58;;;;;;;24.25;10.65;;;;;;;;;;5037300;28;20309;-75
2022/03/11 05:40:25;;;;;;;17.20;8.10;;;;;;;;;;5038451;28;20080;-75
2022/03/11 05:42:55;;;;;;;29.83;11.20;;;;;;;;;;5038716;28;20084;-75
2022/03/11 05:45:21;;;;;;;22.83;10.20;;;;;;;;;;5043650;28;20080;-75
2022/03/11 05:47:48;;;;;;;21.95;9.07;;;;;;;;;;5038811;28;20088;-75
2022/03/11 05:50:14;;;;;;;24.95;9.93;;;;;;;;;;5042509;28;20107;-74
2022/03/11 05:52:42;;;;;;;25.47;10.67;;;;;;;;;;5043271;28;20085;-75
2022/03/11 05:55:09;;;;;;;26.73;11.48;;;;;;;;;;5042649;28;20405;-75
2022/03/11 05:57:36;;;;;;;26.33;10.93;;;;;;;;;;5039003;28;20052;-75
2022/03/11 06:00:04;;;;;;;25.90;8.98;;;;;;;;;;5039399;28;20160;-75
2022/03/11 06:02:31;;;;;;;26.35;10.68;;;;;;;;;;5041219;28;20875;-75
2022/03/11 06:05:04;;;;;;;25.90;10.47;;;;;;;;;;5040331;28;20045;-75
2022/03/11 06:07:31;;;;;;;19.17;7.85;;;;;;;;;;5036215;28;20110;-75
2022/03/11 06:09:57;;;;;;;19.85;8.27;;;;;;;;;;5043590;28;20057;-75
2022/03/11 06:12:27;;;;;;;25.10;10.83;;;;;;;;;;5038775;28;20057;-75
2022/03/11 06:14:54;;;;;;;27.35;11.82;;;;;;;;;;5037629;28;20092;-75
2022/03/11 06:17:20;;;;;;;23.35;10.70;;;;;;;;;;5043315;28;20509;-74
2022/03/11 06:19:47;;;;;;;27.40;11.00;;;;;;;;;;5039961;28;20917;-76
2022/03/11 06:22:14;;;;;;;29.07;10.97;;;;;;;;;;5038559;28;20089;-75
2022/03/11 06:24:42;;;;;;;34.43;14.30;;;;;;;;;;5037213;28;20327;-75
2022/03/11 06:27:10;;;;;;;37.50;14.20;;;;;;;;;;5036591;28;20143;-75
2022/03/11 06:29:36;;;;;;;33.83;14.43;;;;;;;;;;5034527;28;20681;-75
2022/03/11 06:32:03;;;;;;;40.72;14.70;;;;;;;;;;5033973;28;21145;-75
2022/03/11 06:34:31;;;;;;;33.07;14.77;;;;;;;;;;5033203;28;20050;-75
2022/03/11 06:36:57;;;;;;;32.72;12.32;;;;;;;;;;5036367;28;20156;-74
2022/03/11 06:39:24;;;;;;;36.08;14.57;;;;;;;;;;5033956;28;20076;-75
2022/03/11 06:41:51;;;;;;;32.35;15.00;;;;;;;;;;5033583;28;20148;-75
2022/03/11 06:44:18;;;;;;;36.93;14.70;;;;;;;;;;5033294;28;20135;-74
2022/03/11 06:46:44;;;;;;;33.67;14.35;;;;;;;;;;5028381;28;20401;-75
2022/03/11 06:49:11;;;;;;;38.75;14.90;;;;;;;;;;5033154;28;20144;-72
2022/03/11 06:51:38;;;;;;;39.00;15.60;;;;;;;;;;5032535;28;20068;-73
2022/03/11 06:54:07;;;;;;;35.53;15.60;;;;;;;;;;5034738;28;20061;-73
2022/03/11 06:56:35;;;;;;;33.75;14.80;;;;;;;;;;5034304;28;20077;-72
2022/03/11 06:59:03;;;;;;;32.72;14.95;;;;;;;;;;5032609;28;20132;-73
2022/03/11 07:01:30;;;;;;;38.92;15.43;;;;;;;;;;5034224;28;20080;-72
2022/03/11 07:03:57;;;;;;;32.25;14.68;;;;;;;;;;5039693;28;20563;-72
2022/03/11 07:06:23;;;;;;;37.97;16.83;;;;;;;;;;5038086;28;20049;-73
2022/03/11 07:08:50;;;;;;;32.30;14.17;;;;;;;;;;5036847;28;20140;-72
2022/03/11 07:11:17;;;;;;;33.50;15.63;;;;;;;;;;5034090;28;20469;-72
2022/03/11 07:13:44;;;;;;;40.10;16.67;;;;;;;;;;5032767;28;20108;-72
2022/03/11 07:16:10;;;;;;;33.78;15.15;;;;;;;;;;5033256;28;20295;-72
2022/03/11 07:18:37;;;;;;;41.92;16.05;;;;;;;;;;5033444;28;20071;-71
2022/03/11 07:21:04;;;;;;;38.72;15.95;;;;;;;;;;5033725;28;20128;-71
2022/03/11 07:23:30;;;;;;;33.33;15.25;;;;;;;;;;5032789;28;20568;-72
2022/03/11 07:25:57;;;;;;;31.65;15.50;;;;;;;;;;5033847;28;20842;-71
2022/03/11 07:28:23;;;;;;;30.67;14.38;;;;;;;;;;5032465;28;20135;-72
2022/03/11 07:30:49;;;;;;;32.08;14.52;;;;;;;;;;5034712;28;20077;-71
2022/03/11 07:33:23;;;;;;;34.95;14.30;;;;;;;;;;5039085;28;20053;-71
2022/03/11 07:35:49;;;;;;;29.55;14.77;;;;;;;;;;5045709;28;20464;-72
2022/03/11 07:38:17;;;;;;;22.52;10.38;;;;;;;;;;5042950;28;20544;-71
2022/03/11 07:40:50;;;;;;;29.08;14.68;;;;;;;;;;5033190;28;20107;-71
2022/03/11 07:43:17;;;;;;;32.40;16.60;;;;;;;;;;5039111;28;20156;-71
2022/03/11 07:45:43;;;;;;;26.80;13.27;;;;;;;;;;5034136;28;20327;-71
2022/03/11 07:48:12;;;;;;;27.13;14.38;;;;;;;;;;5039812;28;20080;-71
2022/03/11 07:50:38;;;;;;;29.08;14.35;;;;;;;;;;5038426;28;20535;-71
2022/03/11 07:53:05;;;;;;;29.60;14.27;;;;;;;;;;5037351;28;20135;-71
2022/03/11 07:55:32;;;;;;;29.40;13.68;;;;;;;;;;5037977;28;20053;-71
2022/03/11 07:57:58;;;;;;;22.02;11.05;;;;;;;;;;5032780;28;20084;-70
2022/03/11 08:00:26;;;;;;;29.33;13.75;;;;;;;;;;5030830;28;20044;-70
2022/03/11 08:02:56;;;;;;;27.42;13.23;;;;;;;;;;5033764;28;20056;-71
2022/03/11 08:05:22;;;;;;;26.48;13.32;;;;;;;;;;5032614;28;20049;-70
2022/03/11 08:07:50;;;;;;;31.63;12.60;;;;;;;;;;5032777;28;20061;-70
2022/03/11 08:10:17;;;;;;;25.27;13.23;;;;;;;;;;5032606;28;20814;-71
2022/03/11 08:12:43;;;;;;;25.98;13.10;;;;;;;;;;5033747;28;20068;-71
2022/03/11 08:15:12;;;;;;;21.77;11.63;;;;;;;;;;5039668;28;20962;-70
2022/03/11 08:17:40;;;;;;;24.35;12.60;;;;;;;;;;5051710;28;20052;-70
2022/03/11 08:20:06;;;;;;;;;;;;;;;;;;5052493;28;20563;-71
2022/03/11 08:22:34;;;;;;;26.50;12.75;;;;;;;;;;5052943;28;20038;-71
2022/03/11 08:25:00;;;;;;;;;;;;;;;;;;5051425;28;20128;-71
2022/03/11 08:27:27;;;;;;;32.78;13.02;;;;;;;;;;5051330;28;19943;-71
2022/03/11 08:29:53;;;;;;;27.45;12.35;;;;;;;;;;5050920;28;20167;-71
2022/03/11 08:32:28;;;;;;;24.40;11.85;;;;;;;;;;5052410;28;20123;-70
2022/03/11 08:34:55;;;;;;;25.73;12.80;;;;;;;;;;5051078;28;20480;-70
2022/03/11 08:37:27;;;;;;;26.80;11.73;;;;;;;;;;5051263;28;20048;-70
2022/03/11 08:39:59;;;;;;;24.20;12.55;;;;;;;;;;5051277;28;21788;-70
2022/03/11 08:42:26;;;;;;;22.50;11.57;;;;;;;;;;5052135;28;20179;-70
2022/03/11 08:44:52;;;;;;;27.77;11.90;;;;;;;;;;5051229;28;20672;-70
2022/03/11 08:47:19;;;;;;;25.42;12.10;;;;;;;;;;5053291;28;20144;-71
2022/03/11 08:49:46;;;;;;;28.77;12.03;;;;;;;;;;5051487;28;20136;-70
2022/03/11 08:52:12;;;;;;;22.48;12.18;;;;;;;;;;5051759;28;20365;-70
2022/03/11 08:54:39;;;;;;;20.15;11.27;;;;;;;;;;5052592;28;20060;-70
2022/03/11 08:57:05;;;;;;;28.70;12.23;;;;;;;;;;5053326;28;20068;-70
2022/03/11 08:59:32;;;;;;;22.60;11.48;;;;;;;;;;5052251;28;20302;-70
2022/03/11 09:01:58;;;;;;;26.85;12.45;;;;;;;;;;5054822;28;20098;-70
2022/03/11 09:04:25;;;;;;;22.85;11.73;;;;;;;;;;5054526;28;20507;-70
2022/03/11 09:06:52;;;;;;;22.67;11.20;;;;;;;;;;5058319;28;20088;-70
2022/03/11 09:09:21;;;;;;;20.85;10.93;;;;;;;;;;5057039;28;20141;-70
2022/03/11 09:11:47;;;;;;;20.98;10.13;;;;;;;;;;5057093;28;20087;-70
2022/03/11 09:14:14;;;;;;;18.90;10.60;;;;;;;;;;5059568;28;20052;-70
2022/03/11 09:16:41;;;;;;;19.90;9.45;;;;;;;;;;5057934;28;20147;-70
2022/03/11 09:19:08;;;;;;;23.40;9.77;;;;;;;;;;5054641;28;20045;-70
2022/03/11 09:21:39;;;;;;;19.17;9.88;;;;;;;;;;5057989;28;20052;-70
2022/03/11 09:24:06;;;;;;;;;;;;;;;;;;5059368;28;20084;-70
2022/03/11 09:26:33;;;;;;;17.80;9.10;;;;;;;;;;5061035;28;19962;-70
2022/03/11 09:29:18;;;;;;;15.38;9.45;;;;;;;;;;5061711;28;20488;-70
2022/03/11 09:31:45;;;;;;;19.42;10.13;;;;;;;;;;5063767;28;20676;-70
2022/03/11 09:34:12;;;;;;;19.13;10.35;;;;;;;;;;5059474;28;20094;-70
2022/03/11 09:36:38;;;;;;;17.45;9.95;;;;;;;;;;5060367;28;20080;-70
2022/03/11 09:39:06;;;;;;;20.25;9.35;;;;;;;;;;5059099;28;20481;-70
2022/03/11 09:41:32;;;;;;;20.67;9.32;;;;;;;;;;5059675;28;20158;-70
2022/03/11 09:44:00;;;;;;;17.23;8.47;;;;;;;;;;5063297;28;20103;-70
2022/03/11 09:46:27;;;;;;;17.63;8.95;;;;;;;;;;5058342;28;20041;-70
2022/03/11 09:48:54;;;;;;;18.83;8.93;;;;;;;;;;5061713;28;20053;-70
2022/03/11 09:51:26;;;;;;;15.90;8.23;;;;;;;;;;5059223;28;20298;-70
2022/03/11 09:53:59;;;;;;;15.45;8.65;;;;;;;;;;5060607;28;20099;-70
2022/03/11 09:56:26;;;;;;;14.88;8.23;;;;;;;;;;5058962;28;20523;-70
2022/03/11 09:58:53;;;;;;;16.75;8.18;;;;;;;;;;5059058;28;20207;-70
2022/03/11 10:01:21;;;;;;;14.93;8.23;;;;;;;;;;5058325;28;20131;-70
2022/03/11 10:03:48;;;;;;;13.82;8.15;;;;;;;;;;5055038;28;20055;-70
2022/03/11 10:06:14;;;;;;;19.85;8.50;;;;;;;;;;5054718;28;20048;-70
2022/03/11 10:08:44;;;;;;;12.63;7.22;;;;;;;;;;5055198;28;20136;-70
2022/03/11 10:11:16;;;;;;;18.13;8.10;;;;;;;;;;5053909;28;20045;-70
2022/03/11 10:13:43;;;;;;;14.95;7.63;;;;;;;;;;5054544;28;20084;-70
2022/03/11 10:16:20;;;;;;;14.25;7.80;;;;;;;;;;5054183;28;21642;-70
2022/03/11 10:18:55;;;;;;;14.60;7.32;;;;;;;;;;5055025;28;20049;-71
2022/03/11 10:21:27;;;;;;;12.68;7.65;;;;;;;;;;5054531;28;20480;-70
2022/03/11 10:23:54;;;;;;;12.25;6.38;;;;;;;;;;5054680;28;20155;-70
2022/03/11 10:26:40;;;;;;;12.73;7.00;;;;;;;;;;5054358;28;20080;-70
2022/03/11 10:29:10;;;;;;;12.40;6.95;;;;;;;;;;5054605;28;20057;-70
2022/03/11 10:31:39;;;;;;;12.70;6.78;;;;;;;;;;5054950;28;20511;-70
2022/03/11 10:34:12;;;;;;;14.25;7.05;;;;;;;;;;5053857;28;20716;-70
2022/03/11 10:36:45;;;;;;;15.15;7.28;;;;;;;;;;5053264;28;20157;-70
2022/03/11 10:39:16;;;;;;;12.10;6.53;;;;;;;;;;5055658;28;20140;-70
2022/03/11 10:41:42;;;;;;;12.75;6.68;;;;;;;;;;5054438;28;20091;-70
2022/03/11 10:44:09;;;;;;;11.20;6.45;;;;;;;;;;5053023;28;20133;-71
2022/03/11 10:46:35;;;;;;;15.00;7.22;;;;;;;;;;5053529;28;20803;-70
2022/03/11 10:49:03;;;;;;;12.13;6.82;;;;;;;;;;5055167;28;20060;-70
2022/03/11 10:51:32;;;;;;;13.80;7.13;;;;;;;;;;5053128;28;20167;-70
2022/03/11 10:53:59;;;;;;;12.75;6.20;;;;;;;;;;5054760;28;20152;-71
2022/03/11 10:56:34;;;;;;;13.23;6.90;;;;;;;;;;5053678;28;20532;-70
2022/03/11 10:59:25;;;;;;;12.63;6.00;;;;;;;;;;5053188;28;20238;-70
2022/03/11 11:01:52;;;;;;;11.90;6.18;;;;;;;;;;5046406;28;20600;-70
2022/03/11 11:04:19;;;;;;;12.25;6.35;;;;;;;;;;5052825;28;20139;-70
2022/03/11 11:06:46;;;;;;;13.75;5.95;;;;;;;;;;5054031;28;20144;-70
2022/03/11 11:09:14;;;;;;;10.82;6.00;;;;;;;;;;5051861;28;20179;-70
2022/03/11 11:11:42;;;;;;;10.55;6.00;;;;;;;;;;5054860;28;20155;-70
2022/03/11 11:14:09;;;;;;;13.07;6.00;;;;;;;;;;5052767;28;20599;-70
2022/03/11 11:16:40;;;;;;;12.73;6.55;;;;;;;;;;5054000;28;20143;-70
2022/03/11 11:19:08;;;;;;;9.73;5.32;;;;;;;;;;5053768;28;20089;-70
2022/03/11 11:21:35;;;;;;;13.40;6.13;;;;;;;;;;5052979;28;20097;-71
2022/03/11 11:24:02;;;;;;;;;;;;;;;;;;5052676;28;20482;-70
2022/03/11 11:26:28;;;;;;;9.20;5.60;;;;;;;;;;5053390;28;20017;-70
2022/03/11 11:28:57;;;;;;;10.63;5.53;;;;;;;;;;5053113;28;20113;-68
2022/03/11 11:31:24;;;;;;;10.77;5.65;;;;;;;;;;5051909;28;20049;-68
2022/03/11 11:33:51;;;;;;;11.57;5.65;;;;;;;;;;5053265;28;20053;-68
2022/03/11 11:36:37;;;;;;;8.82;5.30;;;;;;;;;;5052304;28;20135;-68
2022/03/11 11:39:07;;;;;;;9.90;5.45;;;;;;;;;;5051611;28;20469;-68
2022/03/11 11:41:35;;;;;;;9.82;4.88;;;;;;;;;;5051808;28;20129;-68
2022/03/11 11:44:05;;;;;;;10.85;5.25;;;;;;;;;;5050954;28;20516;-69
2022/03/11 11:46:33;;;;;;;11.77;5.10;;;;;;;;;;5051965;28;20989;-68
2022/03/11 11:49:01;;;;;;;9.93;5.35;;;;;;;;;;5055536;28;20116;-68
2022/03/11 11:51:34;;;;;;;10.75;5.45;;;;;;;;;;5056873;28;20048;-68
2022/03/11 11:54:08;;;;;;;8.23;4.82;;;;;;;;;;5051187;28;20098;-68
2022/03/11 11:56:35;;;;;;;11.68;5.80;;;;;;;;;;5051419;28;20574;-68
2022/03/11 11:59:02;;;;;;;10.27;4.80;;;;;;;;;;5051205;28;20931;-68
2022/03/11 12:01:49;;;;;;;11.63;5.03;;;;;;;;;;5052744;28;21291;-67
2022/03/11 12:04:22;;;;;;;11.30;5.00;;;;;;;;;;5055368;28;20646;-68
2022/03/11 12:07:14;;;;;;;10.10;5.05;;;;;;;;;;5053607;28;20044;-68
2022/03/11 12:09:42;;;;;;;9.68;5.07;;;;;;;;;;5052590;28;20056;-67
2022/03/11 12:12:09;;;;;;;8.48;4.72;;;;;;;;;;5052858;28;20101;-67
2022/03/11 12:14:54;;;;;;;9.55;5.00;;;;;;;;;;5049608;28;20048;-68
2022/03/11 12:17:34;;;;;;;8.02;4.47;;;;;;;;;;5050114;28;20131;-68
2022/03/11 12:20:20;;;;;;;9.77;4.45;;;;;;;;;;5050489;28;20110;-68
2022/03/11 12:22:52;;;;;;;8.60;5.00;;;;;;;;;;5050993;28;20338;-68
2022/03/11 12:25:22;;;;;;;9.85;5.15;;;;;;;;;;5050242;28;20044;-67
2022/03/11 12:27:59;;;;;;;11.00;4.70;;;;;;;;;;5051254;28;20638;-68
2022/03/11 12:30:27;;;;;;;7.88;4.72;;;;;;;;;;5048760;28;20139;-70
2022/03/11 12:32:53;;;;;;;;;;;;;;;;;;5051866;28;20520;-70
2022/03/11 12:35:20;;;;;;;8.50;4.32;;;;;;;;;;5053300;28;19960;-70
2022/03/11 12:37:47;;;;;;;;;;;;;;;;;;5052170;28;20053;-70
2022/03/11 12:40:24;;;;;;;9.60;3.90;;;;;;;;;;5052295;28;20733;-70
2022/03/11 12:42:56;;;;;;;5.32;3.90;;;;;;;;;;5052964;28;20139;-68
2022/03/11 12:45:37;;;;;;;4.97;3.55;;;;;;;;;;5057524;28;20103;-67
2022/03/11 12:48:04;;;;;;;8.35;4.30;;;;;;;;;;5060087;28;20072;-68
2022/03/11 12:50:31;;;;;;;8.48;3.85;;;;;;;;;;5052813;28;20097;-70
2022/03/11 12:52:58;;;;;;;6.45;3.63;;;;;;;;;;5053208;28;20072;-68
2022/03/11 12:55:27;;;;;;;6.95;4.07;;;;;;;;;;5052658;28;20136;-68
2022/03/11 12:57:54;;;;;;;7.95;4.00;;;;;;;;;;5055938;28;20139;-69
2022/03/11 13:00:22;;;;;;;8.43;3.90;;;;;;;;;;5060795;28;20048;-68
2022/03/11 13:02:49;;;;;;;6.63;3.70;;;;;;;;;;5056316;28;20695;-68
2022/03/11 13:05:20;;;;;;;8.93;3.72;;;;;;;;;;5054555;28;20140;-68
2022/03/11 13:07:47;;;;;;;8.60;3.55;;;;;;;;;;5055413;28;20559;-68
2022/03/11 13:10:16;;;;;;;8.85;4.45;;;;;;;;;;5055403;28;20141;-68
2022/03/11 13:12:42;;;;;;;8.93;3.95;;;;;;;;;;5055011;28;20056;-68
2022/03/11 13:15:16;;;;;;;6.07;3.72;;;;;;;;;;5054617;28;20052;-68
2022/03/11 13:17:43;;;;;;;8.15;4.03;;;;;;;;;;5054263;28;20099;-68
2022/03/11 13:20:10;;;;;;;;;;;;;;;;;;5054309;28;20098;-68
2022/03/11 13:22:36;;;;;;;8.55;4.00;;;;;;;;;;5055361;28;19924;-68
2022/03/11 13:25:03;;;;;;;7.93;4.10;;;;;;;;;;5055341;28;20080;-68
2022/03/11 13:27:38;;;;;;;8.13;3.85;;;;;;;;;;5055589;28;20084;-68
2022/03/11 13:30:08;;;;;;;6.40;3.65;;;;;;;;;;5054379;28;20053;-68
2022/03/11 13:32:34;;;;;;;5.57;3.00;;;;;;;;;;5056078;28;20087;-68
2022/03/11 13:35:00;;;;;;;8.82;3.88;;;;;;;;;;5054186;28;20691;-68
2022/03/11 13:37:28;;;;;;;6.75;3.63;;;;;;;;;;5054091;28;20582;-71
2022/03/11 13:40:07;;;;;;;5.93;3.20;;;;;;;;;;5054851;28;20496;-68
2022/03/11 13:42:37;;;;;;;6.32;3.33;;;;;;;;;;5053729;28;20496;-68
2022/03/11 13:45:07;;;;;;;5.30;3.20;;;;;;;;;;5053252;28;20088;-68
2022/03/11 13:47:33;;;;;;;6.82;3.10;;;;;;;;;;5055193;28;20160;-69
2022/03/11 13:50:06;;;;;;;6.63;3.80;;;;;;;;;;5051613;28;20137;-68
2022/03/11 13:52:40;;;;;;;6.60;3.10;;;;;;;;;;5054474;28;20163;-68
2022/03/11 13:55:08;;;;;;;5.25;3.30;;;;;;;;;;5053731;28;20487;-68
2022/03/11 13:57:35;;;;;;;6.63;3.60;;;;;;;;;;5053985;28;20140;-68
2022/03/11 14:00:14;;;;;;;5.38;3.65;;;;;;;;;;5054827;28;20080;-68
2022/03/11 14:02:40;;;;;;;5.43;3.15;;;;;;;;;;5065754;28;20135;-68
2022/03/11 14:05:16;;;;;;;7.10;3.37;;;;;;;;;;5059528;28;20505;-68
2022/03/11 14:07:46;;;;;;;6.05;3.38;;;;;;;;;;5054283;28;20136;-68
2022/03/11 14:10:16;;;;;;;6.95;3.15;;;;;;;;;;5052978;28;20064;-68
2022/03/11 14:12:43;;;;;;;4.78;2.78;;;;;;;;;;5053870;28;21768;-68
2022/03/11 14:15:11;;;;;;;4.47;2.90;;;;;;;;;;5053872;28;20106;-68
2022/03/11 14:17:38;;;;;;;4.82;2.88;;;;;;;;;;5051845;28;20084;-68
2022/03/11 14:20:06;;;;;;;5.30;3.22;;;;;;;;;;5053548;28;20044;-68
2022/03/11 14:22:36;;;;;;;5.45;3.40;;;;;;;;;;5053011;28;20072;-68
2022/03/11 14:25:03;;;;;;;5.57;3.22;;;;;;;;;;5053209;28;20404;-68
2022/03/11 14:27:29;;;;;;;6.03;3.20;;;;;;;;;;5053755;28;20076;-68
2022/03/11 14:29:59;;;;;;;98.63;41.30;;;;;;;;;;5053331;28;20143;-68
2022/03/11 14:32:25;;;;;;;15.63;6.45;;;;;;;;;;5055490;28;20123;-68
2022/03/11 14:34:52;;;;;;;12.55;4.80;;;;;;;;;;5054348;28;20134;-68